createdAt,value
2018-01-31T02:00:05.216Z,968.78
2018-01-31T02:15:04.663Z,968.62
2018-01-31T02:30:04.837Z,968.65
2018-01-31T02:45:05.024Z,968.54
2018-01-31T03:00:04.681Z,968.27
2018-01-31T03:15:06.245Z,968.16
2018-01-31T03:30:05.935Z,968.11
2018-01-31T03:45:08.125Z,968.13
2018-01-31T04:00:05.659Z,968.62
2018-01-31T04:15:05.144Z,969
2018-01-31T04:30:05.433Z,968.78
2018-01-31T04:45:05.524Z,968.59
2018-01-31T05:00:11.498Z,969
2018-01-31T05:15:05.749Z,969.02
2018-01-31T05:30:05.186Z,969
2018-01-31T05:45:06.005Z,968.97
2018-01-31T06:00:05.050Z,968.92
2018-01-31T06:15:05.213Z,968.32
2018-01-31T06:30:05.016Z,968.32
2018-01-31T06:45:04.402Z,968.19
2018-01-31T07:00:04.952Z,967.97
2018-01-31T07:15:04.948Z,967.76
2018-01-31T07:30:04.558Z,967.49
2018-01-31T07:45:04.872Z,966.49
2018-01-31T08:00:05.228Z,965.81
2018-01-31T08:15:05.615Z,964.33
2018-01-31T08:30:06.264Z,964.6
2018-01-31T08:45:05.718Z,964.52
2018-01-31T09:00:06.173Z,964.3
2018-01-31T09:15:05.604Z,964.3
2018-01-31T09:30:05.315Z,962.63
2018-01-31T09:45:05.237Z,962.14
2018-01-31T10:00:05.151Z,962.01
2018-01-31T10:15:04.513Z,961.95
2018-01-31T10:30:05.106Z,961.93
2018-01-31T10:45:04.507Z,962.6
2018-01-31T11:00:04.962Z,961.9
2018-01-31T11:15:04.317Z,961.55
2018-01-31T11:30:04.478Z,961.03
2018-01-31T11:45:04.402Z,960.2
2018-01-31T12:00:04.912Z,959.9
2018-01-31T12:15:04.333Z,959.17
2018-01-31T12:30:06.053Z,958.71
2018-01-31T12:45:05.462Z,957.93
2018-01-31T13:00:05.431Z,957.88
2018-01-31T13:15:04.941Z,957.82
2018-01-31T13:30:04.682Z,957.66
2018-01-31T13:45:04.779Z,957.72
2018-01-31T14:00:04.887Z,956.85
2018-01-31T14:15:04.698Z,956.31
2018-01-31T14:30:06.328Z,956.18
2018-01-31T14:45:04.880Z,955.66
2018-01-31T15:00:04.740Z,955.07
2018-01-31T15:15:05.266Z,955.29
2018-01-31T15:30:04.390Z,955.18
2018-01-31T15:45:05.292Z,954.45
2018-01-31T16:00:04.634Z,954.45
2018-01-31T16:15:05.070Z,954.45
2018-01-31T16:30:04.633Z,954.32
2018-01-31T16:45:04.968Z,954.48
2018-01-31T17:00:04.872Z,954.69
2018-01-31T17:15:05.774Z,954.48
2018-01-31T17:30:05.127Z,954.4
2018-01-31T17:45:04.559Z,953.99
2018-01-31T18:00:06.272Z,953.64
2018-01-31T18:15:15.518Z,953.34
2018-01-31T18:30:04.836Z,953.29
2018-01-31T18:45:05.886Z,953.37
2018-01-31T19:00:08.766Z,953.32
2018-01-31T19:15:05.306Z,953.24
2018-01-31T19:30:05.454Z,953.26
2018-01-31T19:45:04.952Z,952.97
2018-01-31T20:00:04.839Z,952.78
2018-01-31T20:15:05.704Z,952.32
2018-01-31T20:32:17.115Z,952.59
2018-01-31T20:45:04.446Z,951.94
2018-01-31T21:00:05.904Z,951.89
2018-01-31T21:15:07.722Z,951.78
2018-01-31T21:30:05.926Z,950.97
2018-01-31T21:45:07.789Z,950.94
2018-01-31T22:00:12.392Z,950.43
2018-01-31T22:15:06.305Z,950.54
2018-01-31T22:30:04.850Z,950.78
2018-01-31T22:45:07.437Z,951.02
2018-01-31T23:00:04.460Z,950.78
2018-01-31T23:15:12.035Z,950.65
2018-01-31T23:30:04.672Z,950.48
2018-01-31T23:45:08.161Z,950.65
